Time;durP1;ratioP1;P1;durP2;ratioP2;P2;SDS_P1;SDS_P2;PMS_P1;PMS_P2;Temp;Humidity;BMP_temperature;BMP_pressure;BME280_temperature;BME280_humidity;BME280_pressure;Samples;Min_cycle;Max_cycle;Signal;HPM_P1;HPM_P2
2022/12/18 00:01:37;;;;;;;0.65;0.65;;;-1.70;99.90;;;;;;5069209;28;20063;-80
2022/12/18 00:04:05;;;;;;;0.30;0.30;;;-1.70;99.90;;;;;;5062506;28;20050;-79
2022/12/18 00:06:32;;;;;;;0.38;0.38;;;-1.70;99.90;;;;;;5063715;28;20064;-81
2022/12/18 00:08:58;;;;;;;;;;;-1.70;99.90;;;;;;5067458;28;20020;-81
2022/12/18 00:11:27;;;;;;;0.85;0.85;;;-1.60;99.90;;;;;;5067428;28;20001;-81
2022/12/18 00:13:54;;;;;;;0.30;0.30;;;-1.60;99.90;;;;;;5062757;28;20770;-81
2022/12/18 00:16:22;;;;;;;0.17;0.17;;;-1.50;99.90;;;;;;5055061;28;20024;-81
2022/12/18 00:18:49;;;;;;;0.25;0.25;;;-1.50;99.90;;;;;;5054486;28;20028;-82
2022/12/18 00:21:15;;;;;;;0.15;0.15;;;-1.50;99.90;;;;;;5051117;28;20039;-81
2022/12/18 00:23:43;;;;;;;0.10;0.10;;;-1.50;99.90;;;;;;5057889;28;20090;-81
2022/12/18 00:26:15;;;;;;;0.30;0.30;;;-1.50;99.90;;;;;;5055642;28;20083;-80
2022/12/18 00:28:41;;;;;;;0.50;0.50;;;-1.50;99.90;;;;;;5049853;28;20082;-80
2022/12/18 00:31:10;;;;;;;0.10;0.10;;;-1.50;99.90;;;;;;5057790;28;20056;-81
2022/12/18 00:33:37;;;;;;;0.20;0.20;;;-1.50;99.90;;;;;;5052546;28;20364;-81
2022/12/18 00:36:07;;;;;;;1.02;1.02;;;-1.40;99.90;;;;;;5056500;28;20094;-81
2022/12/18 00:38:33;;;;;;;0.32;0.32;;;-1.40;99.90;;;;;;5049092;28;20094;-80
2022/12/18 00:40:59;;;;;;;0.20;0.20;;;-1.50;99.90;;;;;;5050230;28;20155;-80
2022/12/18 00:43:25;;;;;;;0.10;0.10;;;-1.50;99.90;;;;;;5052317;28;20036;-80
2022/12/18 00:45:51;;;;;;;0.22;0.22;;;-1.50;99.90;;;;;;5051682;28;20052;-80
2022/12/18 00:48:16;;;;;;;0.77;0.77;;;-1.50;99.90;;;;;;5068952;28;20035;-80
2022/12/18 00:50:42;;;;;;;0.10;0.10;;;-1.50;99.90;;;;;;5055315;28;20409;-80
2022/12/18 00:53:11;;;;;;;0.10;0.10;;;-1.50;99.90;;;;;;5050112;28;20036;-80
2022/12/18 00:55:41;;;;;;;0.17;0.17;;;-1.50;99.90;;;;;;5058961;28;20029;-80
2022/12/18 00:58:08;;;;;;;0.10;0.10;;;-1.60;99.90;;;;;;5053877;28;20029;-80
2022/12/18 01:00:34;;;;;;;0.43;0.43;;;-1.50;99.90;;;;;;5053187;28;20077;-80
2022/12/18 01:03:00;;;;;;;0.10;0.10;;;-1.50;99.90;;;;;;5062354;28;20025;-80
2022/12/18 01:05:26;;;;;;;0.10;0.10;;;-1.50;99.90;;;;;;5062464;28;20055;-82
2022/12/18 01:07:52;;;;;;;0.10;0.10;;;-1.50;99.90;;;;;;5059556;28;20103;-82
2022/12/18 01:10:17;;;;;;;0.10;0.10;;;-1.50;99.90;;;;;;5054092;28;20033;-82
2022/12/18 01:12:43;;;;;;;0.15;0.15;;;-1.60;99.90;;;;;;5050388;28;20920;-81
2022/12/18 01:15:10;;;;;;;0.10;0.10;;;-1.50;99.90;;;;;;5052721;28;20024;-81
2022/12/18 01:17:35;;;;;;;0.75;0.73;;;-1.50;99.90;;;;;;5056136;28;20025;-80
2022/12/18 01:20:01;;;;;;;0.80;0.43;;;-1.50;99.90;;;;;;5057866;28;20602;-80
2022/12/18 01:22:27;;;;;;;0.20;0.20;;;-1.60;99.90;;;;;;5060613;28;20036;-80
2022/12/18 01:24:52;;;;;;;0.55;0.55;;;-1.50;99.90;;;;;;5061334;28;20029;-81
2022/12/18 01:27:18;;;;;;;0.10;0.10;;;-1.50;99.90;;;;;;5052188;28;20117;-81
2022/12/18 01:29:44;;;;;;;0.17;0.17;;;-1.60;99.90;;;;;;5051012;28;20040;-81
2022/12/18 01:32:09;;;;;;;0.10;0.10;;;-1.70;99.90;;;;;;5061809;28;20071;-81
2022/12/18 01:34:36;;;;;;;0.63;0.63;;;-1.70;99.90;;;;;;5052872;28;20104;-81
2022/12/18 01:37:03;;;;;;;;;;;-1.60;99.90;;;;;;5048227;28;20109;-82
2022/12/18 01:39:28;;;;;;;0.10;0.10;;;-1.60;99.90;;;;;;5055287;28;19923;-83
2022/12/18 01:42:04;;;;;;;0.63;0.63;;;-1.60;99.90;;;;;;5050859;28;20029;-82
2022/12/18 01:44:57;;;;;;;0.10;0.10;;;-1.60;99.90;;;;;;5063795;28;20032;-81
2022/12/18 01:47:49;;;;;;;0.80;0.80;;;-1.70;99.90;;;;;;5047486;28;20025;-83
2022/12/18 01:50:23;;;;;;;0.10;0.10;;;-1.70;99.90;;;;;;5064465;28;20483;-81
2022/12/18 01:52:55;;;;;;;0.10;0.10;;;-1.60;99.90;;;;;;5054834;28;20029;-81
2022/12/18 01:55:24;;;;;;;0.10;0.10;;;-1.50;99.90;;;;;;5051139;28;20397;-81
2022/12/18 01:57:53;;;;;;;0.40;0.40;;;-1.40;99.90;;;;;;5056396;28;20028;-81
2022/12/18 02:00:21;;;;;;;0.10;0.10;;;-1.40;99.90;;;;;;5058692;28;20035;-81
2022/12/18 02:02:47;;;;;;;0.10;0.10;;;-1.50;99.90;;;;;;5052765;28;20032;-81
2022/12/18 02:05:18;;;;;;;0.10;0.10;;;-1.60;99.90;;;;;;5060214;28;20135;-81
2022/12/18 02:07:59;;;;;;;0.30;0.30;;;-1.60;99.90;;;;;;5059615;28;20121;-81
2022/12/18 02:10:32;;;;;;;0.20;0.20;;;-1.50;99.90;;;;;;5053547;28;20036;-81
2022/12/18 02:13:16;;;;;;;0.10;0.10;;;-1.70;99.90;;;;;;5058413;28;20028;-81
2022/12/18 02:15:54;;;;;;;0.20;0.20;;;-1.60;99.90;;;;;;5055029;28;20032;-81
2022/12/18 02:18:36;;;;;;;0.10;0.10;;;-1.50;99.90;;;;;;5048780;28;20036;-81
2022/12/18 02:21:13;;;;;;;0.10;0.10;;;-1.60;99.90;;;;;;5059963;28;20844;-81
2022/12/18 02:24:20;;;;;;;0.30;0.30;;;-1.60;99.90;;;;;;5065420;28;20661;-81
2022/12/18 02:26:55;;;;;;;0.20;0.20;;;-1.50;99.90;;;;;;5051308;28;20045;-81
2022/12/18 02:29:27;;;;;;;0.10;0.10;;;-1.60;99.90;;;;;;5049912;28;20040;-81
2022/12/18 02:31:57;;;;;;;0.10;0.10;;;-1.60;99.90;;;;;;5049846;28;20412;-82
2022/12/18 02:34:29;;;;;;;0.57;0.57;;;-1.60;99.90;;;;;;5048389;28;20378;-85
2022/12/18 02:36:57;;;;;;;0.10;0.10;;;-1.50;99.90;;;;;;5059102;28;20032;-83
2022/12/18 02:39:26;;;;;;;0.10;0.10;;;-1.50;99.90;;;;;;5060883;28;20606;-84
2022/12/18 02:41:52;;;;;;;0.10;0.10;;;-1.50;99.90;;;;;;5051607;28;20021;-85
2022/12/18 02:44:18;;;;;;;0.10;0.10;;;-1.60;99.90;;;;;;5057807;28;20025;-82
2022/12/18 02:46:51;;;;;;;0.10;0.10;;;-1.50;99.90;;;;;;5055547;28;20662;-83
2022/12/18 02:49:28;;;;;;;0.10;0.10;;;-1.40;99.90;;;;;;5057435;28;20028;-84
2022/12/18 02:52:29;;;;;;;0.13;0.13;;;-1.50;99.90;;;;;;5047454;28;20037;-83
2022/12/18 02:55:17;;;;;;;0.32;0.32;;;-1.40;99.90;;;;;;5045529;28;20047;-82
2022/12/18 02:57:45;;;;;;;0.10;0.10;;;-1.40;99.90;;;;;;5050770;28;20551;-81
2022/12/18 03:00:28;;;;;;;0.88;0.88;;;-1.40;99.90;;;;;;5057457;28;20025;-82
2022/12/18 03:03:12;;;;;;;0.82;0.82;;;-1.40;99.90;;;;;;5047056;28;20615;-82
2022/12/18 03:05:46;;;;;;;0.10;0.10;;;-1.40;99.90;;;;;;5056503;28;20071;-81
2022/12/18 03:08:25;;;;;;;0.75;0.75;;;-1.40;99.90;;;;;;5060765;28;20033;-80
2022/12/18 03:10:59;;;;;;;0.00;0.00;;;-1.40;99.90;;;;;;5052122;28;20478;-80
2022/12/18 03:13:33;;;;;;;0.38;0.38;;;-1.50;99.90;;;;;;5058813;28;20807;-82
2022/12/18 03:16:01;;;;;;;0.10;0.10;;;-1.50;99.90;;;;;;5079192;28;20032;-83
2022/12/18 03:18:34;;;;;;;0.10;0.10;;;-1.50;99.90;;;;;;5067114;28;20801;-83
2022/12/18 03:21:05;;;;;;;0.73;0.73;;;-1.50;99.90;;;;;;5063248;28;20036;-82
2022/12/18 03:23:36;;;;;;;0.10;0.10;;;-1.50;99.90;;;;;;5057794;28;20583;-81
2022/12/18 03:26:07;;;;;;;0.88;0.88;;;-1.50;99.90;;;;;;5072320;28;20511;-82
2022/12/18 03:28:40;;;;;;;0.43;0.43;;;-1.60;99.90;;;;;;5067365;28;20025;-81
2022/12/18 03:31:09;;;;;;;0.68;0.68;;;-1.70;99.90;;;;;;5066040;28;20032;-81
2022/12/18 03:33:43;;;;;;;0.10;0.10;;;-1.70;99.90;;;;;;5053736;28;20523;-82
2022/12/18 03:36:09;;;;;;;0.57;0.52;;;-1.60;99.90;;;;;;5060862;28;20020;-81
2022/12/18 03:38:35;;;;;;;0.10;0.10;;;-1.60;99.90;;;;;;5064098;28;20864;-82
2022/12/18 03:41:26;;;;;;;0.13;0.13;;;-1.60;99.90;;;;;;5058931;28;20047;-82
2022/12/18 03:44:17;;;;;;;0.10;0.10;;;-1.50;99.90;;;;;;5060561;28;20059;-82
2022/12/18 03:46:43;;;;;;;0.22;0.22;;;-1.60;99.90;;;;;;5052291;28;20189;-82
2022/12/18 03:49:14;;;;;;;0.10;0.10;;;-1.50;99.90;;;;;;5068062;28;20036;-82
2022/12/18 03:52:07;;;;;;;1.13;1.13;;;-1.50;99.90;;;;;;5065243;28;20037;-81
2022/12/18 03:54:33;;;;;;;0.75;0.75;;;-1.40;99.90;;;;;;5050838;28;20040;-82
2022/12/18 03:57:27;;;;;;;0.20;0.20;;;-1.40;99.90;;;;;;5057410;28;20688;-83
2022/12/18 03:59:57;;;;;;;0.10;0.10;;;-1.40;99.90;;;;;;5051318;28;20128;-83
2022/12/18 04:02:24;;;;;;;0.20;0.20;;;-1.40;99.90;;;;;;5065740;28;20025;-83
2022/12/18 04:04:53;;;;;;;0.63;0.63;;;-1.40;99.90;;;;;;5056198;28;20102;-83
2022/12/18 04:07:20;;;;;;;0.10;0.10;;;-1.50;99.90;;;;;;5064613;28;20055;-83
2022/12/18 04:09:48;;;;;;;;;;;-1.50;99.90;;;;;;5060639;28;20040;-79
2022/12/18 04:12:14;;;;;;;0.10;0.10;;;-1.40;99.90;;;;;;5054869;28;20467;-80
2022/12/18 04:14:39;;;;;;;1.65;1.00;;;-1.50;99.90;;;;;;5057977;28;20114;-80
2022/12/18 04:17:05;;;;;;;0.10;0.10;;;-1.40;99.90;;;;;;5056713;28;20043;-80
2022/12/18 04:19:31;;;;;;;0.00;0.00;;;-1.40;99.90;;;;;;5072168;28;20854;-81
2022/12/18 04:21:56;;;;;;;0.10;0.10;;;-1.40;99.90;;;;;;5069027;28;20028;-80
2022/12/18 04:24:22;;;;;;;0.10;0.10;;;-1.50;99.90;;;;;;5050275;28;20028;-81
2022/12/18 04:26:48;;;;;;;0.68;0.68;;;-1.40;99.90;;;;;;5050017;28;20773;-83
2022/12/18 04:29:13;;;;;;;0.10;0.10;;;-1.30;99.90;;;;;;5056196;28;20029;-81
2022/12/18 04:31:39;;;;;;;0.13;0.13;;;-1.40;99.90;;;;;;5054312;28;20033;-81
2022/12/18 04:34:05;;;;;;;0.10;0.10;;;-1.30;99.90;;;;;;5052580;28;20103;-82
2022/12/18 04:36:30;;;;;;;0.35;0.35;;;-1.30;99.90;;;;;;5050444;28;20144;-82
2022/12/18 04:38:56;;;;;;;0.57;0.57;;;-1.30;99.90;;;;;;5059188;28;20025;-81
2022/12/18 04:41:22;;;;;;;0.10;0.10;;;-1.30;99.90;;;;;;5049588;28;20052;-82
2022/12/18 04:43:47;;;;;;;0.10;0.10;;;-1.20;99.90;;;;;;5068656;28;20441;-81
2022/12/18 04:46:13;;;;;;;0.30;0.22;;;-1.30;99.90;;;;;;5052273;28;20059;-81
2022/12/18 04:48:39;;;;;;;0.45;0.45;;;-1.20;99.90;;;;;;5053782;28;20017;-81
2022/12/18 04:51:06;;;;;;;0.05;0.05;;;-1.20;99.90;;;;;;5068908;28;20781;-82
2022/12/18 04:53:32;;;;;;;0.13;0.13;;;-1.10;99.90;;;;;;5050854;28;20044;-81
2022/12/18 04:56:14;;;;;;;0.10;0.10;;;-1.10;99.90;;;;;;5050630;28;20647;-82
2022/12/18 04:58:41;;;;;;;0.10;0.10;;;-1.10;99.90;;;;;;5054761;28;20082;-82
2022/12/18 05:01:08;;;;;;;0.10;0.10;;;-1.10;99.90;;;;;;5060481;28;20032;-79
2022/12/18 05:03:35;;;;;;;0.10;0.10;;;-1.10;99.90;;;;;;5056641;28;20056;-79
2022/12/18 05:06:01;;;;;;;0.20;0.20;;;-1.10;99.90;;;;;;5062879;28;20044;-78
2022/12/18 05:08:27;;;;;;;0.22;0.22;;;-1.10;99.90;;;;;;5068494;28;20086;-81
2022/12/18 05:11:03;;;;;;;0.22;0.22;;;-1.10;99.90;;;;;;5050302;28;20412;-80
2022/12/18 05:13:29;;;;;;;0.35;0.35;;;-1.10;99.90;;;;;;5050708;28;20036;-80
2022/12/18 05:15:55;;;;;;;0.43;0.43;;;-1.00;99.90;;;;;;5061415;28;20037;-81
2022/12/18 05:18:22;;;;;;;0.90;0.90;;;-1.10;99.90;;;;;;5050172;28;20044;-81
2022/12/18 05:20:49;;;;;;;;;;;-1.10;99.90;;;;;;5067018;28;20110;-80
2022/12/18 05:23:14;;;;;;;0.10;0.10;;;-1.10;99.90;;;;;;5055303;28;19982;-80
2022/12/18 05:25:40;;;;;;;0.10;0.10;;;-1.10;99.90;;;;;;5049781;28;20029;-81
2022/12/18 05:28:06;;;;;;;0.47;0.47;;;-1.10;99.90;;;;;;5054147;28;20854;-80
2022/12/18 05:30:31;;;;;;;0.08;0.08;;;-1.10;99.90;;;;;;5062166;28;20032;-80
2022/12/18 05:32:57;;;;;;;0.52;0.52;;;-1.00;99.90;;;;;;5051772;28;20021;-82
2022/12/18 05:35:23;;;;;;;0.10;0.10;;;-1.10;99.90;;;;;;5061092;28;20028;-83
2022/12/18 05:37:48;;;;;;;0.10;0.10;;;-1.10;99.90;;;;;;5056009;28;20078;-83
2022/12/18 05:40:14;;;;;;;0.10;0.10;;;-1.20;99.90;;;;;;5062271;28;20040;-83
2022/12/18 05:42:40;;;;;;;0.28;0.28;;;-1.10;99.90;;;;;;5058240;28;20042;-83
2022/12/18 05:45:06;;;;;;;0.32;0.32;;;-1.10;99.90;;;;;;5055450;28;20033;-83
2022/12/18 05:47:32;;;;;;;0.20;0.20;;;-1.10;99.90;;;;;;5056092;28;20028;-84
2022/12/18 05:49:57;;;;;;;0.10;0.10;;;-1.20;99.90;;;;;;5050130;28;20521;-83
2022/12/18 05:52:23;;;;;;;0.10;0.10;;;-1.30;99.90;;;;;;5058513;28;20028;-82
2022/12/18 05:54:49;;;;;;;0.77;0.77;;;-1.30;99.90;;;;;;5056469;28;20040;-82
2022/12/18 05:57:15;;;;;;;0.68;0.68;;;-1.30;99.90;;;;;;5062833;28;20028;-81
2022/12/18 05:59:41;;;;;;;0.35;0.35;;;-1.30;99.90;;;;;;5068078;28;20032;-82
2022/12/18 06:02:06;;;;;;;0.10;0.10;;;-1.40;99.90;;;;;;5057769;28;20797;-80
2022/12/18 06:04:32;;;;;;;0.10;0.10;;;-1.30;99.90;;;;;;5054147;28;20031;-80
2022/12/18 06:06:58;;;;;;;0.50;0.50;;;-1.30;99.90;;;;;;5063597;28;20052;-81
2022/12/18 06:09:24;;;;;;;0.63;0.63;;;-1.40;99.90;;;;;;5059803;28;20634;-81
2022/12/18 06:11:51;;;;;;;0.10;0.10;;;-1.40;99.90;;;;;;5054171;28;20029;-80
2022/12/18 06:14:18;;;;;;;0.10;0.10;;;-1.40;99.90;;;;;;5049092;28;20036;-80
2022/12/18 06:16:43;;;;;;;0.10;0.10;;;-1.40;99.90;;;;;;5046821;28;20025;-82
2022/12/18 06:19:15;;;;;;;0.10;0.10;;;-1.40;99.90;;;;;;5059737;28;20104;-80
2022/12/18 06:21:41;;;;;;;0.30;0.30;;;-1.40;99.90;;;;;;5048143;28;20630;-80
2022/12/18 06:24:07;;;;;;;0.20;0.20;;;-1.50;99.90;;;;;;5051717;28;20028;-82
2022/12/18 06:26:33;;;;;;;0.10;0.10;;;-1.50;99.90;;;;;;5051898;28;20033;-82
2022/12/18 06:28:59;;;;;;;0.32;0.32;;;-1.60;99.90;;;;;;5059365;28;20515;-81
2022/12/18 06:31:25;;;;;;;0.10;0.10;;;-1.50;99.90;;;;;;5061167;28;20043;-85
2022/12/18 06:33:51;;;;;;;0.20;0.20;;;-1.60;99.90;;;;;;5060750;28;20033;-83
2022/12/18 06:36:17;;;;;;;0.10;0.10;;;-1.60;99.90;;;;;;5053126;28;20040;-80
2022/12/18 06:38:43;;;;;;;0.10;0.10;;;-1.50;99.90;;;;;;5062093;28;20073;-80
2022/12/18 06:41:17;;;;;;;2.42;1.98;;;-1.60;99.90;;;;;;5052671;28;20021;-86
2022/12/18 06:43:43;;;;;;;0.40;0.40;;;-1.50;99.90;;;;;;5053160;28;20054;-84
2022/12/18 06:46:10;;;;;;;0.15;0.15;;;-1.50;99.90;;;;;;5055053;28;20095;-81
2022/12/18 06:48:36;;;;;;;0.50;0.50;;;-1.40;99.90;;;;;;5057851;28;20033;-84
2022/12/18 06:51:02;;;;;;;0.08;0.08;;;-1.40;99.90;;;;;;5060341;28;20518;-82
2022/12/18 06:53:29;;;;;;;0.22;0.22;;;-1.40;99.90;;;;;;5060500;28;20042;-82
2022/12/18 06:56:02;;;;;;;0.15;0.15;;;-1.30;99.90;;;;;;5060923;28;20107;-82
2022/12/18 06:58:28;;;;;;;0.10;0.10;;;-1.40;99.90;;;;;;5053659;28;20029;-83
2022/12/18 07:00:58;;;;;;;0.10;0.10;;;-1.30;99.90;;;;;;5047130;28;20431;-82
2022/12/18 07:03:24;;;;;;;0.10;0.10;;;-1.20;99.90;;;;;;5058143;28;20572;-82
2022/12/18 07:05:50;;;;;;;0.10;0.10;;;-1.20;99.90;;;;;;5056409;28;20057;-81
2022/12/18 07:08:15;;;;;;;0.43;0.43;;;-1.20;99.90;;;;;;5063290;28;20028;-81
2022/12/18 07:10:43;;;;;;;0.30;0.30;;;-1.10;99.90;;;;;;5064458;28;20037;-82
2022/12/18 07:13:08;;;;;;;0.10;0.10;;;-1.10;99.90;;;;;;5063908;28;20032;-81
2022/12/18 07:15:34;;;;;;;0.10;0.10;;;-1.10;99.90;;;;;;5062597;28;20040;-80
2022/12/18 07:17:59;;;;;;;0.00;0.00;;;-1.10;99.90;;;;;;5056298;28;20033;-80
2022/12/18 07:20:25;;;;;;;0.30;0.30;;;-1.10;99.90;;;;;;5061045;28;20030;-80
2022/12/18 07:22:51;;;;;;;0.10;0.10;;;-1.10;99.90;;;;;;5062820;28;20491;-79
2022/12/18 07:25:16;;;;;;;0.10;0.10;;;-1.00;99.90;;;;;;5064258;28;20023;-79
2022/12/18 07:27:42;;;;;;;0.20;0.20;;;-1.10;99.90;;;;;;5060995;28;20024;-83
2022/12/18 07:30:09;;;;;;;0.10;0.10;;;-1.20;99.90;;;;;;5064544;28;20121;-81
2022/12/18 07:32:34;;;;;;;0.20;0.20;;;-1.20;99.90;;;;;;5063242;28;20032;-80
2022/12/18 07:35:00;;;;;;;0.35;0.32;;;-1.20;99.90;;;;;;5059631;28;20035;-82
2022/12/18 07:37:26;;;;;;;0.20;0.20;;;-1.20;99.90;;;;;;5049060;28;20111;-80
2022/12/18 07:39:51;;;;;;;2.58;1.02;;;-1.00;99.90;;;;;;5052082;28;20025;-82
2022/12/18 07:42:32;;;;;;;0.10;0.10;;;-1.00;99.90;;;;;;5065556;28;20032;-81
2022/12/18 07:44:59;;;;;;;0.10;0.10;;;-1.00;99.90;;;;;;5055039;28;20535;-82
2022/12/18 07:47:25;;;;;;;0.10;0.10;;;-0.80;99.90;;;;;;5054008;28;20033;-81
2022/12/18 07:49:50;;;;;;;0.10;0.10;;;-0.80;99.90;;;;;;5051539;28;20428;-79
2022/12/18 07:52:16;;;;;;;0.10;0.10;;;-0.80;99.90;;;;;;5052384;28;20845;-79
2022/12/18 07:54:42;;;;;;;0.03;0.03;;;-0.70;99.90;;;;;;5049490;28;20029;-79
2022/12/18 07:57:08;;;;;;;0.10;0.10;;;-0.30;99.90;;;;;;5057741;28;20037;-80
2022/12/18 07:59:35;;;;;;;0.10;0.10;;;-0.10;99.90;;;;;;5059928;28;20289;-81
2022/12/18 08:02:00;;;;;;;0.10;0.10;;;0.00;99.90;;;;;;5057780;28;20025;-80
2022/12/18 08:04:26;;;;;;;0.10;0.10;;;0.20;99.90;;;;;;5053495;28;20282;-80
2022/12/18 08:06:52;;;;;;;0.10;0.10;;;0.50;99.90;;;;;;5055143;28;20045;-81
2022/12/18 08:09:18;;;;;;;0.10;0.10;;;0.50;99.90;;;;;;5052039;28;20576;-78
2022/12/18 08:11:44;;;;;;;0.10;0.10;;;0.40;99.90;;;;;;5052259;28;20946;-79
2022/12/18 08:14:10;;;;;;;0.20;0.20;;;0.40;99.90;;;;;;5053485;28;20029;-79
2022/12/18 08:16:36;;;;;;;0.15;0.15;;;0.50;99.90;;;;;;5053502;28;20693;-81
2022/12/18 08:19:02;;;;;;;0.38;0.38;;;0.50;99.90;;;;;;5059197;28;20036;-84
2022/12/18 08:21:30;;;;;;;0.10;0.10;;;0.80;99.90;;;;;;5067755;28;20024;-82
2022/12/18 08:23:58;;;;;;;0.10;0.10;;;1.10;99.90;;;;;;5063537;28;20048;-87
2022/12/18 08:26:26;;;;;;;0.40;0.40;;;1.30;99.90;;;;;;5058509;28;20396;-86
2022/12/18 08:28:54;;;;;;;0.30;0.30;;;1.40;99.90;;;;;;5060238;28;20027;-87
2022/12/18 08:31:20;;;;;;;0.35;0.35;;;1.40;99.90;;;;;;5063680;28;20032;-87
2022/12/18 08:33:49;;;;;;;0.17;0.17;;;1.20;99.90;;;;;;5065879;28;20025;-85
2022/12/18 08:36:16;;;;;;;0.52;0.40;;;1.00;99.90;;;;;;5064261;28;20038;-82
2022/12/18 08:38:41;;;;;;;0.10;0.10;;;0.80;99.90;;;;;;5062474;28;20084;-87
2022/12/18 08:41:10;;;;;;;0.10;0.10;;;0.70;99.90;;;;;;5049966;28;20272;-87
2022/12/18 08:46:22;;;;;;;1.75;0.93;;;0.80;99.90;;;;;;5065094;28;20035;-83
2022/12/18 08:48:48;;;;;;;;;;;0.90;99.90;;;;;;5056447;28;20028;-82
2022/12/18 08:51:16;;;;;;;0.10;0.10;;;1.10;99.90;;;;;;5053596;28;19958;-83
2022/12/18 08:53:42;;;;;;;0.10;0.10;;;1.60;99.90;;;;;;5056214;28;20028;-83
2022/12/18 08:56:08;;;;;;;0.73;0.55;;;2.10;99.90;;;;;;5054436;28;20033;-83
2022/12/18 08:58:34;;;;;;;0.10;0.10;;;2.20;99.90;;;;;;5048966;28;20040;-82
2022/12/18 09:01:01;;;;;;;0.43;0.43;;;2.50;99.80;;;;;;5050299;28;20079;-82
2022/12/18 09:03:27;;;;;;;0.10;0.10;;;2.50;99.90;;;;;;5055113;28;20086;-82
2022/12/18 09:05:53;;;;;;;0.10;0.10;;;2.60;99.90;;;;;;5063762;28;20044;-82
2022/12/18 09:08:19;;;;;;;2.85;1.00;;;2.70;99.00;;;;;;5062975;28;20096;-82
2022/12/18 09:10:47;;;;;;;0.10;0.10;;;2.90;99.40;;;;;;5064297;28;20047;-82
2022/12/18 09:13:14;;;;;;;;;;;3.10;99.20;;;;;;5055999;28;20660;-81
2022/12/18 09:15:40;;;;;;;;;;;3.20;97.50;;;;;;5050257;28;19916;-81
2022/12/18 09:18:07;;;;;;;;;;;3.40;98.10;;;;;;5049719;28;19923;-81
2022/12/18 09:20:32;;;;;;;0.30;0.30;;;3.40;97.60;;;;;;5062122;28;20043;-81
2022/12/18 09:22:58;;;;;;;0.20;0.20;;;3.80;94.90;;;;;;5051527;28;20120;-81
2022/12/18 09:25:23;;;;;;;0.10;0.10;;;4.10;93.70;;;;;;5053555;28;20098;-80
2022/12/18 09:27:49;;;;;;;0.20;0.20;;;4.20;93.70;;;;;;5053115;28;20029;-80
2022/12/18 09:30:15;;;;;;;0.40;0.40;;;4.20;94.20;;;;;;5052313;28;20582;-81
2022/12/18 09:32:40;;;;;;;0.10;0.10;;;4.50;96.10;;;;;;5056657;28;20390;-81
2022/12/18 09:35:06;;;;;;;1.45;0.90;;;4.60;96.50;;;;;;5053448;28;20025;-83
2022/12/18 09:37:32;;;;;;;1.85;0.63;;;4.50;96.90;;;;;;5058296;28;20094;-82
2022/12/18 09:39:58;;;;;;;0.10;0.10;;;4.30;97.50;;;;;;5050284;28;20021;-82
2022/12/18 09:42:23;;;;;;;0.10;0.10;;;4.60;98.10;;;;;;5057138;28;20029;-82
2022/12/18 09:44:52;;;;;;;0.30;0.30;;;4.60;98.20;;;;;;5060358;28;20084;-81
2022/12/18 09:47:37;;;;;;;0.10;0.10;;;4.50;98.50;;;;;;5062644;28;20173;-81
2022/12/18 09:50:15;;;;;;;0.25;0.25;;;4.70;98.70;;;;;;5061872;28;20657;-82
2022/12/18 09:52:46;;;;;;;0.10;0.10;;;4.70;98.30;;;;;;5064866;28;20071;-82
2022/12/18 09:55:15;;;;;;;0.90;0.90;;;4.90;99.30;;;;;;5059765;28;20108;-80
2022/12/18 09:57:48;;;;;;;0.20;0.20;;;5.30;99.10;;;;;;5062089;28;20054;-83
2022/12/18 10:00:22;;;;;;;0.10;0.10;;;5.90;97.80;;;;;;5060501;28;20028;-82
2022/12/18 10:02:50;;;;;;;1.02;0.40;;;6.20;96.80;;;;;;5063857;28;20028;-82
2022/12/18 10:05:27;;;;;;;0.82;0.82;;;6.40;96.60;;;;;;5060174;28;20046;-82
2022/12/18 10:08:23;;;;;;;;;;;6.30;97.40;;;;;;5064523;28;20032;-79
2022/12/18 10:11:01;;;;;;;0.10;0.10;;;6.00;98.00;;;;;;5044146;28;19917;-80
2022/12/18 10:14:05;;;;;;;0.20;0.20;;;6.10;97.30;;;;;;5058101;28;20047;-80
2022/12/18 10:16:57;;;;;;;0.63;0.45;;;5.90;96.50;;;;;;5049459;28;20037;-81
2022/12/18 10:19:31;;;;;;;0.10;0.10;;;5.50;95.30;;;;;;5057234;28;20112;-78
2022/12/18 10:22:19;;;;;;;0.70;0.55;;;5.30;93.10;;;;;;5058846;28;20035;-80
2022/12/18 10:24:55;;;;;;;0.20;0.20;;;5.40;97.20;;;;;;5054651;28;20134;-81
2022/12/18 10:27:26;;;;;;;0.68;0.68;;;5.70;97.20;;;;;;5063877;28;20035;-80
2022/12/18 10:29:53;;;;;;;0.40;0.40;;;5.70;97.90;;;;;;5058665;28;20069;-79
2022/12/18 10:32:21;;;;;;;;;;;5.90;98.50;;;;;;5062720;28;20028;-79
2022/12/18 10:34:48;;;;;;;0.20;0.20;;;6.00;99.30;;;;;;5063987;28;19912;-79
2022/12/18 10:37:20;;;;;;;0.10;0.10;;;6.00;98.60;;;;;;5056272;28;20543;-78
2022/12/18 10:40:04;;;;;;;0.43;0.43;;;6.10;99.00;;;;;;5060794;28;20028;-79
2022/12/18 10:42:29;;;;;;;0.10;0.10;;;6.20;99.30;;;;;;5060245;28;20029;-79
2022/12/18 10:45:08;;;;;;;0.13;0.13;;;6.30;99.90;;;;;;5056880;28;20811;-79
2022/12/18 10:47:34;;;;;;;0.20;0.20;;;6.40;99.90;;;;;;5057386;28;20112;-79
2022/12/18 10:50:00;;;;;;;0.47;0.47;;;6.60;99.90;;;;;;5063294;28;20782;-81
2022/12/18 10:52:27;;;;;;;0.20;0.20;;;6.70;99.90;;;;;;5060939;28;20405;-79
2022/12/18 10:54:58;;;;;;;;;;;6.60;99.90;;;;;;5062400;28;20046;-80
2022/12/18 10:57:26;;;;;;;0.10;0.10;;;6.70;99.90;;;;;;5058818;28;19923;-78
2022/12/18 10:59:57;;;;;;;0.10;0.10;;;6.80;99.90;;;;;;5065110;28;20028;-79
2022/12/18 11:02:35;;;;;;;0.10;0.10;;;7.00;99.90;;;;;;5052344;28;20033;-80
2022/12/18 11:05:01;;;;;;;0.10;0.10;;;7.10;99.90;;;;;;5051610;28;20025;-81
2022/12/18 11:07:48;;;;;;;0.10;0.10;;;7.10;99.90;;;;;;5059431;28;20125;-78
2022/12/18 11:10:18;;;;;;;0.10;0.10;;;7.10;99.90;;;;;;5063016;28;20060;-78
2022/12/18 11:12:44;;;;;;;4.18;0.88;;;7.00;99.90;;;;;;5051088;28;20036;-77
2022/12/18 11:15:23;;;;;;;0.20;0.20;;;7.00;99.90;;;;;;5051339;28;20032;-79
2022/12/18 11:17:51;;;;;;;0.20;0.20;;;7.00;99.90;;;;;;5048193;28;20033;-78
2022/12/18 11:20:36;;;;;;;0.30;0.30;;;6.80;99.90;;;;;;5049616;28;20088;-79
2022/12/18 11:23:05;;;;;;;0.45;0.45;;;7.00;99.90;;;;;;5053398;28;20037;-81
2022/12/18 11:25:33;;;;;;;0.40;0.40;;;7.20;99.90;;;;;;5059615;28;21712;-81
2022/12/18 11:28:03;;;;;;;0.40;0.40;;;7.30;99.90;;;;;;5052074;28;20024;-79
2022/12/18 11:30:35;;;;;;;0.20;0.20;;;7.40;99.90;;;;;;5058063;28;20601;-78
2022/12/18 11:33:06;;;;;;;0.20;0.20;;;7.40;99.90;;;;;;5056196;28;20037;-79
2022/12/18 11:35:42;;;;;;;0.20;0.20;;;7.60;99.90;;;;;;5053898;28;20025;-80
2022/12/18 11:38:32;;;;;;;0.17;0.17;;;7.60;99.90;;;;;;5063261;28;20037;-79
2022/12/18 11:41:03;;;;;;;0.50;0.50;;;7.60;99.90;;;;;;5057530;28;20025;-80
2022/12/18 11:43:35;;;;;;;0.10;0.10;;;7.70;99.90;;;;;;5064338;28;20028;-80
2022/12/18 11:46:06;;;;;;;0.40;0.40;;;7.70;99.90;;;;;;5069416;28;20021;-80
2022/12/18 11:48:44;;;;;;;0.20;0.20;;;7.60;99.90;;;;;;5062387;28;20032;-80
2022/12/18 11:51:34;;;;;;;0.30;0.30;;;7.70;99.90;;;;;;5064463;28;20032;-80
2022/12/18 11:54:01;;;;;;;0.20;0.20;;;7.70;99.90;;;;;;5058064;28;20055;-80
2022/12/18 11:56:43;;;;;;;0.35;0.35;;;7.80;99.90;;;;;;5068710;28;20036;-80
2022/12/18 11:59:14;;;;;;;0.45;0.45;;;7.90;99.90;;;;;;5063798;28;20132;-80
2022/12/18 12:01:50;;;;;;;0.38;0.38;;;7.90;99.90;;;;;;5060590;28;20100;-81
2022/12/18 12:04:22;;;;;;;0.10;0.10;;;8.10;99.90;;;;;;5062945;28;20028;-80
2022/12/18 12:07:08;;;;;;;0.68;0.68;;;8.10;99.90;;;;;;5067179;28;20119;-80
2022/12/18 12:09:54;;;;;;;0.20;0.20;;;8.10;99.90;;;;;;5067968;28;20029;-80
2022/12/18 12:12:46;;;;;;;0.28;0.28;;;8.10;99.90;;;;;;5065541;28;20036;-80
2022/12/18 12:15:11;;;;;;;0.25;0.25;;;8.10;99.90;;;;;;5062142;28;20043;-80
2022/12/18 12:17:50;;;;;;;0.10;0.10;;;8.30;99.90;;;;;;5055517;28;20029;-80
2022/12/18 12:20:24;;;;;;;0.10;0.10;;;8.20;99.90;;;;;;5054054;28;20067;-80
2022/12/18 12:23:22;;;;;;;0.40;0.40;;;8.50;99.90;;;;;;5051231;28;20395;-81
2022/12/18 12:26:17;;;;;;;0.38;0.38;;;8.40;99.90;;;;;;5048450;28;20025;-80
2022/12/18 12:28:59;;;;;;;0.40;0.40;;;8.50;99.90;;;;;;5047104;28;20076;-80
2022/12/18 12:31:47;;;;;;;1.08;0.57;;;8.50;99.90;;;;;;5066689;28;20040;-81
2022/12/18 12:34:19;;;;;;;2.05;0.68;;;8.40;99.90;;;;;;5050448;28;20034;-81
2022/12/18 12:37:16;;;;;;;0.15;0.15;;;8.40;99.90;;;;;;5060725;28;20381;-80
2022/12/18 12:39:45;;;;;;;0.98;0.60;;;8.60;99.90;;;;;;5060908;28;20028;-81
2022/12/18 12:45:06;;;;;;;0.20;0.20;;;8.60;99.90;;;;;;5050663;28;20065;-80
2022/12/18 12:47:38;;;;;;;1.02;0.80;;;8.80;99.90;;;;;;5048826;28;20062;-80
2022/12/18 12:50:11;;;;;;;0.20;0.20;;;8.70;99.90;;;;;;5049968;28;20040;-81
2022/12/18 12:52:45;;;;;;;0.55;0.55;;;8.90;99.90;;;;;;5048698;28;20039;-80
2022/12/18 12:55:29;;;;;;;0.20;0.20;;;8.70;99.90;;;;;;5051075;28;20057;-81
2022/12/18 12:57:58;;;;;;;0.20;0.20;;;8.80;99.90;;;;;;5059991;28;20021;-80
2022/12/18 13:00:31;;;;;;;0.20;0.20;;;8.80;99.90;;;;;;5054814;28;20056;-81
2022/12/18 13:03:23;;;;;;;0.10;0.10;;;9.10;99.90;;;;;;5052044;28;20028;-81
2022/12/18 13:05:50;;;;;;;0.90;0.90;;;9.20;99.90;;;;;;5054109;28;20047;-80
2022/12/18 13:08:26;;;;;;;0.70;0.65;;;9.50;99.90;;;;;;5057354;28;20037;-81
2022/12/18 13:12:55;;;;;;;0.20;0.20;;;9.60;99.90;;;;;;5055777;28;20025;-81
2022/12/18 13:13:54;;;;;;;0.20;0.20;;;9.60;99.90;;;;;;5067429;28;20028;-81
2022/12/18 13:16:22;;;;;;;0.28;0.28;;;9.70;99.90;;;;;;5047931;28;20079;-81